createdAt,value
2023-03-31T00:00:31.001Z,8.75
2023-03-31T00:02:58.801Z,8.73
2023-03-31T00:05:26.844Z,8.78
2023-03-31T00:08:00.935Z,8.75
2023-03-31T00:10:29.048Z,8.72
2023-03-31T00:12:58.155Z,8.67
2023-03-31T00:15:26.126Z,8.63
2023-03-31T00:17:53.858Z,8.58
2023-03-31T00:20:22.788Z,8.57
2023-03-31T00:22:50.291Z,8.54
2023-03-31T00:25:18.039Z,8.54
2023-03-31T00:27:45.935Z,8.55
2023-03-31T00:30:18.293Z,8.52
2023-03-31T00:32:46.343Z,8.55
2023-03-31T00:35:14.093Z,8.49
2023-03-31T00:37:43.346Z,8.46
2023-03-31T00:40:12.133Z,8.48
2023-03-31T00:42:43.415Z,8.45
2023-03-31T00:45:27.187Z,8.43
2023-03-31T00:47:56.578Z,8.45
2023-03-31T00:50:27.017Z,8.50
2023-03-31T00:52:56.773Z,8.51
2023-03-31T00:55:26.762Z,8.50
2023-03-31T00:57:57.976Z,8.56
2023-03-31T01:00:26.843Z,8.55
2023-03-31T01:02:59.156Z,8.55
2023-03-31T01:05:29.030Z,8.54
2023-03-31T01:07:57.123Z,8.57
2023-03-31T01:10:24.620Z,8.62
2023-03-31T01:12:54.791Z,8.68
2023-03-31T01:15:23.563Z,8.64
2023-03-31T01:17:55.941Z,8.65
2023-03-31T01:20:25.862Z,8.59
2023-03-31T01:23:30.846Z,8.58
2023-03-31T01:26:33.376Z,8.65
2023-03-31T01:29:06.459Z,8.53
2023-03-31T01:32:02.245Z,8.52
2023-03-31T01:35:02.226Z,8.52
2023-03-31T01:38:09.747Z,8.47
2023-03-31T01:40:59.092Z,8.48
2023-03-31T01:43:30.915Z,8.54
2023-03-31T01:46:02.532Z,8.59
2023-03-31T01:48:38.345Z,8.62
2023-03-31T01:51:08.566Z,8.71
2023-03-31T01:53:42.135Z,8.69
2023-03-31T01:56:14.711Z,8.71
2023-03-31T01:58:42.901Z,8.73
2023-03-31T02:01:16.070Z,8.70
2023-03-31T02:03:47.932Z,8.66
2023-03-31T02:06:18.868Z,8.67
2023-03-31T02:08:49.404Z,8.62
2023-03-31T02:11:19.265Z,8.63
2023-03-31T02:13:48.857Z,8.59
2023-03-31T02:16:24.635Z,8.60
2023-03-31T02:19:02.089Z,8.69
2023-03-31T02:21:32.702Z,8.64
2023-03-31T02:24:01.576Z,8.67
2023-03-31T02:26:32.610Z,8.61
2023-03-31T02:29:00.342Z,8.59
2023-03-31T02:31:30.602Z,8.57
2023-03-31T02:33:58.293Z,8.55
2023-03-31T02:36:26.214Z,8.62
2023-03-31T02:38:57.972Z,8.76
2023-03-31T02:41:28.177Z,8.71
2023-03-31T02:43:58.881Z,8.76
2023-03-31T02:46:26.688Z,8.74
2023-03-31T02:48:56.792Z,8.69
2023-03-31T02:51:48.221Z,8.66
2023-03-31T02:54:25.433Z,8.65
2023-03-31T02:57:11.331Z,8.63
2023-03-31T02:59:48.855Z,8.69
2023-03-31T03:02:20.397Z,8.68
2023-03-31T03:05:08.081Z,8.77
2023-03-31T03:07:45.500Z,8.74
2023-03-31T03:10:17.905Z,8.75
2023-03-31T03:12:51.034Z,8.82
2023-03-31T03:15:22.747Z,8.79
2023-03-31T03:17:51.000Z,8.74
2023-03-31T03:20:20.360Z,8.75
2023-03-31T03:22:47.929Z,8.77
2023-03-31T03:25:18.187Z,8.76
2023-03-31T03:27:45.692Z,8.82
2023-03-31T03:30:14.429Z,8.83
2023-03-31T03:32:43.546Z,8.82
2023-03-31T03:35:11.826Z,8.88
2023-03-31T03:37:39.476Z,8.87
2023-03-31T03:40:08.269Z,8.90
2023-03-31T03:42:36.247Z,8.91
2023-03-31T03:45:03.974Z,8.82
2023-03-31T03:47:31.598Z,8.83
2023-03-31T03:50:00.530Z,8.80
2023-03-31T03:52:28.070Z,8.79
2023-03-31T03:54:55.769Z,8.79
2023-03-31T03:57:23.431Z,8.84
2023-03-31T03:59:51.236Z,8.79
2023-03-31T04:02:18.768Z,8.81
2023-03-31T04:04:46.449Z,8.77
2023-03-31T04:07:15.537Z,8.82
2023-03-31T04:09:43.014Z,8.82
2023-03-31T04:12:10.519Z,8.88
2023-03-31T04:14:38.016Z,8.86
2023-03-31T04:17:05.513Z,8.93
2023-03-31T04:19:33.007Z,8.82
2023-03-31T04:22:02.913Z,8.83
2023-03-31T04:24:32.979Z,8.73
2023-03-31T04:27:03.098Z,8.73
2023-03-31T04:29:33.723Z,8.72
2023-03-31T04:32:01.593Z,8.70
2023-03-31T04:34:35.219Z,8.65
2023-03-31T04:37:03.924Z,8.72
2023-03-31T04:39:32.800Z,8.76
2023-03-31T04:42:01.245Z,8.71
2023-03-31T04:44:28.870Z,8.73
2023-03-31T04:46:56.729Z,8.73
2023-03-31T04:49:24.256Z,8.75
2023-03-31T04:51:51.943Z,8.68
2023-03-31T04:54:19.474Z,8.67
2023-03-31T04:56:48.318Z,8.67
2023-03-31T04:59:16.084Z,8.67
2023-03-31T05:01:45.683Z,8.65
2023-03-31T05:04:13.555Z,8.70
2023-03-31T05:06:41.194Z,8.71
2023-03-31T05:09:09.677Z,8.74
2023-03-31T05:11:38.469Z,8.69
2023-03-31T05:14:07.535Z,8.74
2023-03-31T05:16:35.928Z,8.83
2023-03-31T05:19:03.609Z,8.81
2023-03-31T05:21:31.611Z,8.76
2023-03-31T05:23:59.175Z,8.81
2023-03-31T05:26:27.134Z,8.85
2023-03-31T05:28:55.521Z,8.67
2023-03-31T05:31:24.393Z,8.66
2023-03-31T05:33:51.972Z,8.63
2023-03-31T05:36:19.592Z,8.58
2023-03-31T05:38:47.686Z,8.61
2023-03-31T05:41:16.772Z,8.62
2023-03-31T05:43:44.340Z,8.62
2023-03-31T05:46:12.077Z,8.66
2023-03-31T05:48:41.247Z,8.67
2023-03-31T05:51:08.794Z,8.63
2023-03-31T05:53:36.316Z,8.68
2023-03-31T05:56:06.955Z,8.66
2023-03-31T05:58:35.275Z,8.60
2023-03-31T06:01:07.196Z,8.57
2023-03-31T06:03:35.693Z,8.61
2023-03-31T06:06:06.405Z,8.63
2023-03-31T06:08:34.317Z,8.67
2023-03-31T06:11:02.025Z,8.68
2023-03-31T06:13:29.625Z,8.70
2023-03-31T06:15:58.527Z,8.75
2023-03-31T06:18:28.715Z,8.80
2023-03-31T06:20:56.786Z,8.82
2023-03-31T06:23:26.193Z,8.94
2023-03-31T06:25:55.277Z,8.95
2023-03-31T06:28:22.817Z,8.96
2023-03-31T06:30:50.351Z,9.00
2023-03-31T06:33:17.827Z,9.09
2023-03-31T06:35:45.486Z,9.05
2023-03-31T06:38:12.983Z,9.08
2023-03-31T06:40:43.093Z,9.12
2023-03-31T06:43:10.705Z,9.13
2023-03-31T06:45:38.395Z,9.15
2023-03-31T06:48:06.901Z,9.20
2023-03-31T06:50:38.466Z,9.26
2023-03-31T06:53:06.165Z,9.29
2023-03-31T06:55:34.007Z,9.31
2023-03-31T06:58:04.596Z,9.34
2023-03-31T07:00:32.319Z,9.38
2023-03-31T07:02:59.906Z,9.42
2023-03-31T07:05:28.672Z,9.39
2023-03-31T07:07:58.407Z,9.39
2023-03-31T07:10:27.467Z,9.36
2023-03-31T07:12:56.721Z,9.36
2023-03-31T07:15:26.220Z,9.36
2023-03-31T07:17:54.084Z,9.39
2023-03-31T07:20:21.774Z,9.39
2023-03-31T07:22:49.934Z,9.38
2023-03-31T07:25:18.522Z,9.38
2023-03-31T07:27:46.173Z,9.44
2023-03-31T07:30:16.273Z,9.41
2023-03-31T07:32:47.470Z,9.45
2023-03-31T07:35:15.055Z,9.43
2023-03-31T07:37:43.969Z,9.52
2023-03-31T07:40:13.330Z,9.47
2023-03-31T07:42:40.864Z,9.41
2023-03-31T07:45:09.196Z,9.43
2023-03-31T07:47:36.961Z,9.42
2023-03-31T07:50:06.950Z,9.41
2023-03-31T07:52:34.729Z,9.39
2023-03-31T07:55:02.227Z,9.39
2023-03-31T07:57:29.869Z,9.45
2023-03-31T07:59:57.601Z,9.46
2023-03-31T08:02:25.637Z,9.42
2023-03-31T08:04:53.254Z,9.36
2023-03-31T08:07:22.082Z,9.36
2023-03-31T08:09:49.923Z,9.35
2023-03-31T08:12:17.493Z,9.37
2023-03-31T08:14:45.093Z,9.34
2023-03-31T08:17:12.661Z,9.38
2023-03-31T08:19:40.158Z,9.36
2023-03-31T08:22:08.145Z,9.32
2023-03-31T08:24:36.941Z,9.27
2023-03-31T08:27:04.646Z,9.26
2023-03-31T08:29:32.265Z,9.27
2023-03-31T08:32:00.054Z,9.28
2023-03-31T08:34:28.329Z,9.27
2023-03-31T08:36:56.511Z,9.31
2023-03-31T08:39:24.121Z,9.31
2023-03-31T08:41:57.234Z,9.34
2023-03-31T08:44:30.666Z,9.41
2023-03-31T08:46:59.935Z,9.45
2023-03-31T08:49:28.095Z,9.46
2023-03-31T08:51:58.548Z,9.46
2023-03-31T08:54:32.575Z,9.47
2023-03-31T08:57:02.758Z,9.54
2023-03-31T08:59:31.938Z,9.57
2023-03-31T09:02:06.984Z,9.67
2023-03-31T09:04:51.376Z,9.75
2023-03-31T09:07:21.989Z,9.74
2023-03-31T09:09:52.758Z,9.75
2023-03-31T09:12:24.649Z,9.76
2023-03-31T09:14:54.726Z,9.72
2023-03-31T09:17:25.958Z,9.74
2023-03-31T09:19:56.098Z,9.76
2023-03-31T09:22:26.861Z,9.77
2023-03-31T09:24:58.856Z,9.78
2023-03-31T09:27:31.286Z,9.79
2023-03-31T09:30:01.334Z,9.80
2023-03-31T09:32:30.743Z,9.75
2023-03-31T09:35:02.016Z,9.75
2023-03-31T09:37:32.718Z,9.76
2023-03-31T09:40:01.336Z,9.74
2023-03-31T09:42:30.210Z,9.73
2023-03-31T09:44:57.752Z,9.65
2023-03-31T09:47:30.940Z,9.58
2023-03-31T09:49:58.502Z,9.49
2023-03-31T09:52:30.173Z,9.47
2023-03-31T09:55:00.500Z,9.41
2023-03-31T09:57:33.543Z,9.38
2023-03-31T10:00:13.550Z,9.29
2023-03-31T10:02:45.506Z,9.25
2023-03-31T10:05:23.332Z,9.25
2023-03-31T10:07:51.116Z,9.20
2023-03-31T10:10:27.607Z,9.16
2023-03-31T10:12:56.537Z,9.20
2023-03-31T10:15:27.539Z,9.14
2023-03-31T10:17:55.827Z,9.12
2023-03-31T10:20:34.666Z,9.17
2023-03-31T10:23:08.059Z,9.18
2023-03-31T10:25:35.875Z,9.12
2023-03-31T10:28:04.946Z,9.13
2023-03-31T10:30:37.838Z,9.14
2023-03-31T10:33:21.885Z,9.13
2023-03-31T10:35:51.882Z,9.11
2023-03-31T10:38:25.445Z,9.13
2023-03-31T10:40:54.402Z,9.15
2023-03-31T10:43:27.219Z,9.14
2023-03-31T10:45:56.479Z,9.13
2023-03-31T10:48:27.293Z,9.16
2023-03-31T10:50:56.288Z,9.11
2023-03-31T10:53:23.778Z,9.12
2023-03-31T10:55:58.790Z,9.11
2023-03-31T10:58:39.577Z,9.08
2023-03-31T11:01:17.011Z,9.09
2023-03-31T11:03:56.942Z,9.10
2023-03-31T11:06:28.810Z,9.09
2023-03-31T11:09:04.491Z,9.03
2023-03-31T11:11:56.978Z,9.03
2023-03-31T11:14:33.868Z,9.04
2023-03-31T11:17:06.501Z,9.11
2023-03-31T11:19:41.320Z,9.02
2023-03-31T11:22:14.535Z,9.11
2023-03-31T11:25:06.397Z,9.16
2023-03-31T11:27:44.533Z,9.23
2023-03-31T11:30:21.163Z,9.26
2023-03-31T11:32:58.107Z,9.30
2023-03-31T11:35:47.273Z,9.41
2023-03-31T11:38:25.231Z,9.46
2023-03-31T11:41:01.277Z,9.54
2023-03-31T11:43:33.306Z,9.63
2023-03-31T11:46:05.997Z,9.80
2023-03-31T11:48:39.768Z,10.00
2023-03-31T11:51:13.371Z,10.12
2023-03-31T11:53:43.309Z,10.45
2023-03-31T11:56:12.367Z,10.62
2023-03-31T11:58:43.426Z,10.90
2023-03-31T12:01:17.984Z,11.28
2023-03-31T12:03:51.659Z,11.30
2023-03-31T12:06:23.237Z,11.32
2023-03-31T12:09:02.965Z,11.18
2023-03-31T12:11:35.449Z,11.12
2023-03-31T12:14:05.109Z,11.12
2023-03-31T12:16:38.789Z,11.13
2023-03-31T12:19:09.908Z,11.31
2023-03-31T12:21:39.176Z,11.70
2023-03-31T12:24:08.411Z,12.01
2023-03-31T12:26:41.221Z,12.20
2023-03-31T12:29:15.291Z,12.14
2023-03-31T12:31:45.409Z,11.99
2023-03-31T12:34:15.076Z,12.18
2023-03-31T12:36:54.148Z,11.98
2023-03-31T12:39:31.770Z,11.83
2023-03-31T12:42:08.696Z,11.73
2023-03-31T12:44:49.193Z,11.66
2023-03-31T12:47:27.706Z,11.55
2023-03-31T12:50:10.126Z,11.52
2023-03-31T12:52:45.074Z,11.57
2023-03-31T12:55:34.546Z,11.61
2023-03-31T12:58:39.633Z,11.81
2023-03-31T13:01:10.872Z,12.24
2023-03-31T13:03:54.749Z,12.10
2023-03-31T13:06:57.759Z,11.95
2023-03-31T13:09:46.853Z,11.96
2023-03-31T13:12:17.450Z,12.24
2023-03-31T13:14:46.793Z,12.46
2023-03-31T13:17:22.839Z,12.46
2023-03-31T13:19:52.361Z,12.43
2023-03-31T13:22:34.894Z,12.47
2023-03-31T13:25:39.814Z,12.49
2023-03-31T13:28:35.573Z,12.37
2023-03-31T13:31:04.428Z,12.46
2023-03-31T13:33:34.956Z,12.52
2023-03-31T13:36:35.588Z,12.43
2023-03-31T13:39:12.390Z,12.29
2023-03-31T13:41:52.995Z,12.10
2023-03-31T13:44:38.516Z,11.84
2023-03-31T13:47:28.862Z,11.74
2023-03-31T13:50:13.925Z,11.72
2023-03-31T13:52:49.320Z,11.65
2023-03-31T13:55:41.074Z,11.59
2023-03-31T13:58:34.446Z,11.65
2023-03-31T14:01:26.803Z,11.61
2023-03-31T14:04:04.306Z,11.71
2023-03-31T14:06:35.146Z,11.83
2023-03-31T14:09:06.821Z,11.85
2023-03-31T14:11:35.055Z,11.88
2023-03-31T14:14:05.085Z,11.92
2023-03-31T14:16:36.830Z,11.90
2023-03-31T14:19:16.069Z,11.85
2023-03-31T14:21:46.988Z,11.87
2023-03-31T14:24:20.986Z,11.90
2023-03-31T14:26:57.962Z,11.92
2023-03-31T14:29:30.901Z,11.94
2023-03-31T14:32:03.654Z,11.79
2023-03-31T14:34:42.632Z,11.77
2023-03-31T14:37:13.716Z,11.80
2023-03-31T14:39:44.575Z,11.84
2023-03-31T14:42:13.994Z,11.81
2023-03-31T14:44:42.574Z,11.79
2023-03-31T14:47:15.066Z,11.85
2023-03-31T14:49:42.447Z,11.84
2023-03-31T14:52:16.288Z,11.85
2023-03-31T14:54:47.624Z,11.77
2023-03-31T14:57:18.703Z,11.71
2023-03-31T14:59:47.487Z,11.84
2023-03-31T15:02:18.333Z,11.76
2023-03-31T15:04:49.072Z,11.74
2023-03-31T15:07:18.744Z,11.81
2023-03-31T15:09:50.705Z,11.80
2023-03-31T15:12:20.356Z,11.74
2023-03-31T15:14:49.614Z,11.60
2023-03-31T15:17:22.179Z,11.55
2023-03-31T15:19:55.029Z,11.54
2023-03-31T15:22:24.483Z,11.58
2023-03-31T15:24:54.060Z,11.49
2023-03-31T15:27:35.902Z,11.42
2023-03-31T15:30:06.984Z,11.36
2023-03-31T15:32:37.151Z,11.31
2023-03-31T15:35:18.694Z,11.33
2023-03-31T15:37:50.545Z,11.33
2023-03-31T15:40:22.927Z,11.25
2023-03-31T15:43:01.965Z,11.25
2023-03-31T15:45:39.612Z,11.13
2023-03-31T15:48:07.643Z,11.05
2023-03-31T15:50:36.325Z,10.93
2023-03-31T15:53:04.216Z,10.96
2023-03-31T15:55:40.724Z,10.96
2023-03-31T15:58:13.017Z,10.97
2023-03-31T16:00:47.280Z,11.00
2023-03-31T16:03:18.092Z,11.00
2023-03-31T16:05:54.758Z,11.00
2023-03-31T16:08:26.347Z,11.01
2023-03-31T16:11:01.600Z,11.06
2023-03-31T16:13:30.366Z,11.07
2023-03-31T16:15:58.502Z,11.00
2023-03-31T16:18:29.701Z,10.90
2023-03-31T16:21:00.051Z,10.83
2023-03-31T16:23:30.639Z,10.81
2023-03-31T16:25:59.726Z,10.60
2023-03-31T16:28:29.124Z,10.46
2023-03-31T16:30:58.774Z,10.17
2023-03-31T16:33:26.400Z,10.00
2023-03-31T16:35:56.289Z,9.91
2023-03-31T16:38:25.053Z,9.79
2023-03-31T16:40:54.637Z,9.81
2023-03-31T16:43:24.645Z,9.66
2023-03-31T16:45:53.954Z,9.67
2023-03-31T16:48:22.786Z,9.64
2023-03-31T16:50:52.891Z,9.64
2023-03-31T16:53:23.103Z,9.68
2023-03-31T16:55:51.140Z,9.64
2023-03-31T16:58:18.884Z,9.61
2023-03-31T17:00:48.293Z,9.54
2023-03-31T17:03:16.937Z,9.50
2023-03-31T17:05:47.373Z,9.50
2023-03-31T17:08:16.048Z,9.40
2023-03-31T17:10:50.409Z,9.35
2023-03-31T17:13:17.946Z,9.32
2023-03-31T17:15:45.437Z,9.33
2023-03-31T17:18:14.571Z,9.33
2023-03-31T17:20:42.145Z,9.33
2023-03-31T17:23:09.733Z,9.26
2023-03-31T17:25:37.245Z,9.26
2023-03-31T17:28:05.171Z,9.18
2023-03-31T17:30:34.223Z,9.13
2023-03-31T17:33:01.802Z,9.18
2023-03-31T17:35:30.857Z,9.17
2023-03-31T17:38:03.932Z,9.15
2023-03-31T17:40:33.481Z,9.12
2023-03-31T17:43:01.649Z,9.15
2023-03-31T17:45:29.165Z,9.18
2023-03-31T17:47:56.940Z,9.17
2023-03-31T17:50:24.611Z,9.14
2023-03-31T17:52:53.868Z,9.33
2023-03-31T17:55:21.375Z,9.19
2023-03-31T17:57:48.892Z,9.15
2023-03-31T18:00:16.942Z,9.17
2023-03-31T18:02:44.532Z,9.19
2023-03-31T18:05:12.505Z,9.27
2023-03-31T18:07:41.510Z,9.21
2023-03-31T18:10:11.234Z,9.16
2023-03-31T18:12:39.343Z,9.13
2023-03-31T18:15:10.262Z,9.10
2023-03-31T18:17:37.860Z,9.14
2023-03-31T18:20:06.692Z,9.11
2023-03-31T18:22:40.652Z,9.13
2023-03-31T18:25:10.751Z,9.07
2023-03-31T18:27:38.316Z,9.04
2023-03-31T18:30:07.243Z,9.04
2023-03-31T18:32:35.289Z,9.10
2023-03-31T18:35:04.040Z,9.19
2023-03-31T18:37:31.631Z,9.15
2023-03-31T18:39:59.141Z,9.07
2023-03-31T18:42:28.029Z,9.12
2023-03-31T18:44:55.652Z,9.11
2023-03-31T18:47:23.345Z,9.05
2023-03-31T18:49:53.904Z,9.07
2023-03-31T18:52:21.504Z,9.07
2023-03-31T18:54:50.059Z,9.09
2023-03-31T18:57:17.759Z,9.12
2023-03-31T18:59:47.618Z,9.08
2023-03-31T19:02:15.961Z,9.04
2023-03-31T19:04:43.439Z,9.04
2023-03-31T19:07:11.388Z,9.07
2023-03-31T19:09:39.342Z,9.07
2023-03-31T19:12:07.574Z,9.09
2023-03-31T19:14:36.208Z,9.14
2023-03-31T19:17:05.329Z,9.10
2023-03-31T19:19:33.154Z,9.17
2023-03-31T19:22:01.205Z,9.14
2023-03-31T19:24:29.119Z,9.14
2023-03-31T19:26:57.781Z,9.14
2023-03-31T19:29:30.256Z,9.18
2023-03-31T19:31:57.873Z,9.24
2023-03-31T19:34:27.173Z,9.20
2023-03-31T19:36:55.076Z,9.14
2023-03-31T19:39:22.686Z,9.14
2023-03-31T19:41:50.381Z,9.09
2023-03-31T19:44:17.883Z,9.07
2023-03-31T19:46:45.829Z,9.06
2023-03-31T19:49:13.448Z,9.07
2023-03-31T19:51:42.422Z,9.09
2023-03-31T19:54:10.978Z,9.02
2023-03-31T19:56:38.917Z,9.01
2023-03-31T19:59:06.925Z,8.99
2023-03-31T20:01:35.691Z,8.97
2023-03-31T20:04:03.305Z,9.02
2023-03-31T20:06:31.834Z,9.01
2023-03-31T20:09:06.237Z,9.05
2023-03-31T20:11:33.862Z,9.04
2023-03-31T20:14:02.146Z,8.98
2023-03-31T20:16:31.230Z,8.92
2023-03-31T20:19:01.204Z,8.91
2023-03-31T20:21:31.327Z,8.90
2023-03-31T20:23:59.729Z,8.98
2023-03-31T20:26:30.435Z,8.94
2023-03-31T20:28:58.827Z,8.83
2023-03-31T20:31:28.908Z,8.76
2023-03-31T20:33:57.038Z,8.72
2023-03-31T20:36:27.161Z,8.76
2023-03-31T20:38:54.713Z,8.76
2023-03-31T20:41:24.797Z,8.68
2023-03-31T20:43:55.805Z,8.67
2023-03-31T20:46:24.597Z,8.61
2023-03-31T20:48:53.377Z,8.60
2023-03-31T20:51:24.569Z,8.61
2023-03-31T20:53:53.997Z,8.63
2023-03-31T20:56:24.810Z,8.61
2023-03-31T20:58:54.885Z,8.61
2023-03-31T21:01:23.662Z,8.60
2023-03-31T21:03:54.648Z,8.61
2023-03-31T21:06:22.252Z,8.68
2023-03-31T21:08:53.312Z,8.65
2023-03-31T21:11:22.560Z,8.65
2023-03-31T21:13:50.109Z,8.59
2023-03-31T21:16:19.325Z,8.70
2023-03-31T21:18:46.835Z,8.73
2023-03-31T21:21:15.582Z,8.69
2023-03-31T21:23:43.267Z,8.64
2023-03-31T21:26:14.510Z,8.62
2023-03-31T21:28:42.305Z,8.63
2023-03-31T21:31:11.252Z,8.66
2023-03-31T21:33:41.690Z,8.63
2023-03-31T21:36:11.051Z,8.63
2023-03-31T21:38:38.975Z,8.69
2023-03-31T21:41:07.259Z,8.73
2023-03-31T21:43:34.996Z,8.73
2023-03-31T21:46:02.648Z,8.77
2023-03-31T21:48:30.491Z,8.75
2023-03-31T21:51:00.623Z,8.81
2023-03-31T21:53:29.474Z,8.76
2023-03-31T21:55:57.723Z,8.76
2023-03-31T21:58:27.485Z,8.72
2023-03-31T22:00:56.288Z,8.77
2023-03-31T22:03:27.563Z,8.68
2023-03-31T22:05:56.075Z,8.65
2023-03-31T22:08:25.405Z,8.62
2023-03-31T22:10:53.654Z,8.63
2023-03-31T22:13:22.099Z,8.63
2023-03-31T22:15:50.059Z,8.66
2023-03-31T22:18:17.912Z,8.62
2023-03-31T22:20:45.874Z,8.64
2023-03-31T22:23:13.622Z,8.58
2023-03-31T22:25:42.632Z,8.64
2023-03-31T22:28:10.805Z,8.62
2023-03-31T22:30:38.312Z,8.61
2023-03-31T22:33:06.240Z,8.63
2023-03-31T22:35:34.242Z,8.69
2023-03-31T22:38:02.986Z,8.61
2023-03-31T22:40:30.971Z,8.61
2023-03-31T22:43:01.002Z,8.65
2023-03-31T22:45:29.958Z,8.64
2023-03-31T22:47:57.751Z,8.61
2023-03-31T22:50:25.462Z,8.68
2023-03-31T22:52:53.382Z,8.64
2023-03-31T22:55:20.969Z,8.59
2023-03-31T22:57:48.764Z,8.57
2023-03-31T23:00:18.097Z,8.56
2023-03-31T23:02:45.658Z,8.60
2023-03-31T23:05:13.208Z,8.56
2023-03-31T23:07:41.561Z,8.58
2023-03-31T23:10:09.872Z,8.58
2023-03-31T23:12:37.738Z,8.57
2023-03-31T23:15:05.774Z,8.56
2023-03-31T23:17:34.625Z,8.58
2023-03-31T23:20:02.463Z,8.61
2023-03-31T23:22:30.076Z,8.59
2023-03-31T23:24:57.560Z,8.58
2023-03-31T23:27:25.483Z,8.58
2023-03-31T23:29:53.013Z,8.66
2023-03-31T23:32:20.553Z,8.64
2023-03-31T23:34:49.404Z,8.66
2023-03-31T23:37:17.196Z,8.64
2023-03-31T23:39:44.732Z,8.63
2023-03-31T23:42:15.970Z,8.63
2023-03-31T23:44:44.135Z,8.59
2023-03-31T23:47:11.716Z,8.61
2023-03-31T23:49:39.394Z,8.63
2023-03-31T23:52:08.253Z,8.66
2023-03-31T23:54:35.750Z,8.68
2023-03-31T23:57:04.138Z,8.67
2023-03-31T23:59:31.704Z,8.68
